createdAt,value
2019-03-23T00:01:02.334Z,10.53
2019-03-23T00:03:31.224Z,8.57
2019-03-23T00:06:00.292Z,12.97
2019-03-23T00:08:29.215Z,12.13
2019-03-23T00:10:58.099Z,7.93
2019-03-23T00:13:27.921Z,8.30
2019-03-23T00:15:56.847Z,10.90
2019-03-23T00:18:25.758Z,9.90
2019-03-23T00:20:54.678Z,8.93
2019-03-23T00:23:23.589Z,9.87
2019-03-23T00:25:52.494Z,10.03
2019-03-23T00:28:21.391Z,11.80
2019-03-23T00:30:50.253Z,5.03
2019-03-23T00:33:19.125Z,6.80
2019-03-23T00:35:47.976Z,10.13
2019-03-23T00:38:17.006Z,10.47
2019-03-23T00:40:45.874Z,11.17
2019-03-23T00:43:14.740Z,9.13
2019-03-23T00:45:43.621Z,7.53
2019-03-23T00:48:12.470Z,6.83
2019-03-23T00:50:41.331Z,8.40
2019-03-23T00:53:10.209Z,7.03
2019-03-23T00:55:38.996Z,9.53
2019-03-23T00:58:07.862Z,7.30
2019-03-23T01:00:36.738Z,8.23
2019-03-23T01:03:05.599Z,9.87
2019-03-23T01:05:35.381Z,9.00
2019-03-23T01:08:04.268Z,4.47
2019-03-23T01:10:33.167Z,12.60
2019-03-23T01:13:02.025Z,7.40
2019-03-23T01:15:30.818Z,7.87
2019-03-23T01:17:59.713Z,8.57
2019-03-23T01:20:28.574Z,9.47
2019-03-23T01:22:57.831Z,8.30
2019-03-23T01:25:26.699Z,11.27
2019-03-23T01:27:55.570Z,6.83
2019-03-23T01:30:24.439Z,9.03
2019-03-23T01:32:53.298Z,7.67
2019-03-23T01:35:22.162Z,7.87
2019-03-23T01:37:51.041Z,9.83
2019-03-23T01:40:19.840Z,11.93
2019-03-23T01:42:48.699Z,7.20
2019-03-23T01:45:17.587Z,7.23
2019-03-23T01:47:46.453Z,7.83
2019-03-23T01:50:15.314Z,4.97
2019-03-23T01:52:45.219Z,12.87
2019-03-23T01:55:14.084Z,5.27
2019-03-23T01:57:42.946Z,13.47
2019-03-23T02:00:13.380Z,4.43
2019-03-23T02:02:42.249Z,7.50
2019-03-23T02:05:11.109Z,11.37
2019-03-23T02:07:40.005Z,7.77
2019-03-23T02:10:10.504Z,8.10
2019-03-23T02:12:39.362Z,5.70
2019-03-23T02:15:10.577Z,6.03
2019-03-23T02:17:39.435Z,7.00
2019-03-23T02:20:10.329Z,7.77
2019-03-23T02:22:39.264Z,11.03
2019-03-23T02:25:08.804Z,9.33
2019-03-23T02:27:37.670Z,9.33
2019-03-23T02:30:09.432Z,5.17
2019-03-23T02:32:38.296Z,4.83
2019-03-23T02:35:07.799Z,4.43
2019-03-23T02:37:36.679Z,10.97
2019-03-23T02:40:09.809Z,8.90
2019-03-23T02:42:38.695Z,9.83
2019-03-23T02:45:11.650Z,7.47
2019-03-23T02:47:40.547Z,8.40
2019-03-23T02:50:10.132Z,8.67
2019-03-23T02:52:39.000Z,7.47
2019-03-23T02:55:09.003Z,7.43
2019-03-23T02:57:37.878Z,7.27
2019-03-23T03:00:14.112Z,12.90
2019-03-23T03:02:43.002Z,5.50
2019-03-23T03:05:11.859Z,13.83
2019-03-23T03:07:42.959Z,8.63
2019-03-23T03:10:12.471Z,14.73
2019-03-23T03:12:41.337Z,8.77
2019-03-23T03:15:10.221Z,10.33
2019-03-23T03:17:39.095Z,10.93
2019-03-23T03:20:09.714Z,7.80
2019-03-23T03:22:38.742Z,5.83
2019-03-23T03:25:07.883Z,11.33
2019-03-23T03:27:36.781Z,10.17
2019-03-23T03:30:06.999Z,6.03
2019-03-23T03:32:35.847Z,4.03
2019-03-23T03:35:05.561Z,9.07
2019-03-23T03:37:34.443Z,4.83
2019-03-23T03:40:04.071Z,12.17
2019-03-23T03:42:32.953Z,4.43
2019-03-23T03:45:01.853Z,7.10
2019-03-23T03:47:30.725Z,7.30
2019-03-23T03:49:59.578Z,7.27
2019-03-23T03:52:28.490Z,9.13
2019-03-23T03:54:57.326Z,5.40
2019-03-23T03:57:26.190Z,3.20
2019-03-23T03:59:55.007Z,5.23
2019-03-23T04:02:23.877Z,3.80
2019-03-23T04:04:52.740Z,6.87
2019-03-23T04:07:23.530Z,3.83
2019-03-23T04:09:52.400Z,9.03
2019-03-23T04:12:21.265Z,4.77
2019-03-23T04:14:50.131Z,5.93
2019-03-23T04:17:18.999Z,8.60
2019-03-23T04:19:47.863Z,4.97
2019-03-23T04:22:16.795Z,5.93
2019-03-23T04:24:45.979Z,9.70
2019-03-23T04:27:14.835Z,5.20
2019-03-23T04:29:43.724Z,4.03
2019-03-23T04:32:12.584Z,5.23
2019-03-23T04:34:41.459Z,6.03
2019-03-23T04:37:10.376Z,8.00
2019-03-23T04:39:39.231Z,2.10
2019-03-23T04:42:08.089Z,5.50
2019-03-23T04:44:36.983Z,4.07
2019-03-23T04:47:05.839Z,6.40
2019-03-23T04:49:34.715Z,6.93
2019-03-23T04:52:03.603Z,8.30
2019-03-23T04:54:32.485Z,5.40
2019-03-23T04:57:01.274Z,2.63
2019-03-23T04:59:30.166Z,10.33
2019-03-23T05:01:59.046Z,6.83
2019-03-23T05:04:27.900Z,4.33
2019-03-23T05:06:57.686Z,2.23
2019-03-23T05:09:26.483Z,8.77
2019-03-23T05:11:55.345Z,5.27
2019-03-23T05:14:24.233Z,8.97
2019-03-23T05:16:53.024Z,5.47
2019-03-23T05:19:21.954Z,4.67
2019-03-23T05:21:50.841Z,9.63
2019-03-23T05:24:19.723Z,1.93
2019-03-23T05:26:48.591Z,4.93
2019-03-23T05:29:17.477Z,6.40
2019-03-23T05:31:46.346Z,9.63
2019-03-23T05:34:15.208Z,3.03
2019-03-23T05:36:44.098Z,6.17
2019-03-23T05:39:12.965Z,7.07
2019-03-23T05:41:42.778Z,5.43
2019-03-23T05:44:11.630Z,5.23
2019-03-23T05:46:40.486Z,6.40
2019-03-23T05:49:09.346Z,6.53
2019-03-23T05:51:38.238Z,2.87
2019-03-23T05:54:07.303Z,4.90
2019-03-23T05:56:36.196Z,4.20
2019-03-23T05:59:05.076Z,2.80
2019-03-23T06:01:33.930Z,3.57
2019-03-23T06:04:02.765Z,6.53
2019-03-23T06:06:31.606Z,4.80
2019-03-23T06:09:02.084Z,5.60
2019-03-23T06:11:30.952Z,4.13
2019-03-23T06:13:59.826Z,5.10
2019-03-23T06:16:28.692Z,6.37
2019-03-23T06:18:57.573Z,5.23
2019-03-23T06:21:26.466Z,3.33
2019-03-23T06:23:55.322Z,3.40
2019-03-23T06:26:26.186Z,4.90
2019-03-23T06:28:55.059Z,4.07
2019-03-23T06:31:24.043Z,4.67
2019-03-23T06:33:52.927Z,4.83
2019-03-23T06:36:21.791Z,3.70
2019-03-23T06:38:50.655Z,3.03
2019-03-23T06:41:19.544Z,4.60
2019-03-23T06:43:48.786Z,5.27
2019-03-23T06:46:17.641Z,3.77
2019-03-23T06:48:46.519Z,6.13
2019-03-23T06:51:15.379Z,7.37
2019-03-23T06:53:44.244Z,4.27
2019-03-23T06:56:13.144Z,9.53
2019-03-23T06:58:42.014Z,4.27
2019-03-23T07:01:10.882Z,7.03
2019-03-23T07:03:39.779Z,3.20
2019-03-23T07:06:08.634Z,7.23
2019-03-23T07:08:37.507Z,1.90
2019-03-23T07:11:06.544Z,7.43
2019-03-23T07:13:35.405Z,5.53
2019-03-23T07:16:04.262Z,7.97
2019-03-23T07:18:33.444Z,4.07
2019-03-23T07:21:02.302Z,4.50
2019-03-23T07:23:31.163Z,4.20
2019-03-23T07:26:00.054Z,7.50
2019-03-23T07:28:28.910Z,4.90
2019-03-23T07:30:57.770Z,6.10
2019-03-23T07:33:26.658Z,3.90
2019-03-23T07:35:55.514Z,5.60
2019-03-23T07:38:24.372Z,6.50
2019-03-23T07:40:53.265Z,7.10
2019-03-23T07:43:24.044Z,5.07
2019-03-23T07:45:52.903Z,4.83
2019-03-23T07:48:21.795Z,2.23
2019-03-23T07:50:50.654Z,11.40
2019-03-23T07:53:19.525Z,8.37
2019-03-23T07:55:48.666Z,5.30
2019-03-23T07:58:17.582Z,11.83
2019-03-23T08:00:46.449Z,5.97
2019-03-23T08:03:15.322Z,5.83
2019-03-23T08:05:44.195Z,10.77
2019-03-23T08:08:13.058Z,8.77
2019-03-23T08:10:46.096Z,10.47
2019-03-23T08:13:15.004Z,6.03
2019-03-23T08:15:43.856Z,8.43
2019-03-23T08:18:12.743Z,8.20
2019-03-23T08:20:41.602Z,7.80
2019-03-23T08:23:10.500Z,10.43
2019-03-23T08:25:39.361Z,3.87
2019-03-23T08:28:10.058Z,5.60
2019-03-23T08:30:38.947Z,6.97
2019-03-23T08:33:07.900Z,8.30
2019-03-23T08:35:36.785Z,12.27
2019-03-23T08:38:05.642Z,6.23
2019-03-23T08:40:35.799Z,6.27
2019-03-23T08:43:04.803Z,16.93
2019-03-23T08:45:33.671Z,8.47
2019-03-23T08:48:02.565Z,15.80
2019-03-23T08:50:31.459Z,9.43
2019-03-23T08:53:00.347Z,6.73
2019-03-23T08:55:29.219Z,8.90
2019-03-23T08:57:58.078Z,9.03
2019-03-23T09:00:26.945Z,8.00
2019-03-23T09:02:56.767Z,10.73
2019-03-23T09:05:25.647Z,12.20
2019-03-23T09:07:54.514Z,8.37
2019-03-23T09:10:23.407Z,6.67
2019-03-23T09:12:52.258Z,7.03
2019-03-23T09:15:21.159Z,7.83
2019-03-23T09:17:50.033Z,9.90
2019-03-23T09:20:19.001Z,6.33
2019-03-23T09:22:47.790Z,7.23
2019-03-23T09:25:16.742Z,7.37
2019-03-23T09:27:45.602Z,9.20
2019-03-23T09:30:14.788Z,6.10
2019-03-23T09:32:43.671Z,6.20
2019-03-23T09:35:12.569Z,6.23
2019-03-23T09:37:41.433Z,8.40
2019-03-23T09:40:11.390Z,8.73
2019-03-23T09:42:40.381Z,11.50
2019-03-23T09:45:09.184Z,6.10
2019-03-23T09:47:38.096Z,11.20
2019-03-23T09:50:09.227Z,6.50
2019-03-23T09:52:38.090Z,8.93
2019-03-23T09:55:07.525Z,10.37
2019-03-23T09:57:36.389Z,7.17
2019-03-23T10:00:12.268Z,12.27
2019-03-23T10:02:41.146Z,9.83
2019-03-23T10:05:10.032Z,8.07
2019-03-23T10:07:38.930Z,6.77
2019-03-23T10:10:07.872Z,8.80
2019-03-23T10:12:37.650Z,14.20
2019-03-23T10:15:09.198Z,12.40
2019-03-23T10:17:38.075Z,10.17
2019-03-23T10:20:07.313Z,13.83
2019-03-23T10:22:36.211Z,9.60
2019-03-23T10:25:06.694Z,12.00
2019-03-23T10:27:35.577Z,13.33
2019-03-23T10:30:07.561Z,10.50
2019-03-23T10:32:36.432Z,13.83
2019-03-23T10:35:07.251Z,15.20
2019-03-23T10:37:36.147Z,10.00
2019-03-23T10:40:09.583Z,10.70
2019-03-23T10:42:38.463Z,11.27
2019-03-23T10:45:08.211Z,13.43
2019-03-23T10:47:37.330Z,11.93
2019-03-23T10:50:06.339Z,13.43
2019-03-23T10:52:35.226Z,8.97
2019-03-23T10:55:05.942Z,10.90
2019-03-23T10:57:34.809Z,13.70
2019-03-23T11:00:11.720Z,8.37
2019-03-23T11:02:40.589Z,10.70
2019-03-23T11:05:09.499Z,8.10
2019-03-23T11:07:38.390Z,11.27
2019-03-23T11:10:09.772Z,10.07
2019-03-23T11:12:38.631Z,9.70
2019-03-23T11:15:08.856Z,6.50
2019-03-23T11:17:39.617Z,5.00
2019-03-23T11:20:10.535Z,7.53
2019-03-23T11:22:39.549Z,9.50
2019-03-23T11:25:08.421Z,8.00
2019-03-23T11:27:37.278Z,5.57
2019-03-23T11:30:11.574Z,6.03
2019-03-23T11:32:40.447Z,5.87
2019-03-23T11:37:51.856Z,9.53
2019-03-23T11:40:20.779Z,6.27
2019-03-23T11:42:50.543Z,8.10
2019-03-23T11:45:19.530Z,4.97
2019-03-23T11:47:48.412Z,6.80
2019-03-23T11:50:17.291Z,7.20
2019-03-23T11:52:47.178Z,8.13
2019-03-23T11:55:15.994Z,8.57
2019-03-23T11:57:44.849Z,8.83
2019-03-23T12:00:14.872Z,7.90
2019-03-23T12:02:43.759Z,12.27
2019-03-23T12:05:12.633Z,9.67
2019-03-23T12:07:41.513Z,11.50
2019-03-23T12:10:11.425Z,13.63
2019-03-23T12:12:41.211Z,12.97
2019-03-23T12:15:11.534Z,9.20
2019-03-23T12:17:40.407Z,8.47
2019-03-23T12:20:09.281Z,13.50
2019-03-23T12:22:38.177Z,14.03
2019-03-23T12:25:07.050Z,12.03
2019-03-23T12:27:35.908Z,11.70
2019-03-23T12:30:07.814Z,12.17
2019-03-23T12:32:36.697Z,14.07
2019-03-23T12:35:07.337Z,15.07
2019-03-23T12:37:36.234Z,13.80
2019-03-23T12:40:06.466Z,16.73
2019-03-23T12:42:35.655Z,15.87
2019-03-23T12:45:05.486Z,16.53
2019-03-23T12:47:34.359Z,17.47
2019-03-23T12:50:04.109Z,11.73
2019-03-23T12:52:33.007Z,15.83
2019-03-23T12:55:01.882Z,15.17
2019-03-23T12:57:30.737Z,16.33
2019-03-23T12:59:59.626Z,15.30
2019-03-23T13:02:28.518Z,15.40
2019-03-23T13:04:57.381Z,13.23
2019-03-23T13:07:26.267Z,11.73
2019-03-23T13:09:55.188Z,13.57
2019-03-23T13:12:24.046Z,16.23
2019-03-23T13:14:52.939Z,10.70
2019-03-23T13:17:21.805Z,12.23
2019-03-23T13:19:50.611Z,12.33
2019-03-23T13:22:19.502Z,18.07
2019-03-23T13:24:48.378Z,15.50
2019-03-23T13:27:17.238Z,29.83
2019-03-23T13:29:46.112Z,31.30
2019-03-23T13:32:14.979Z,42.00
2019-03-23T13:34:44.313Z,42.93
2019-03-23T13:37:13.200Z,106.07
2019-03-23T13:39:42.078Z,72.87
2019-03-23T13:42:10.954Z,89.40
2019-03-23T13:44:39.851Z,95.87
2019-03-23T13:47:15.594Z,136.80
2019-03-23T13:49:44.243Z,134.90
2019-03-23T13:52:13.019Z,114.40
2019-03-23T13:54:41.955Z,222.17
2019-03-23T13:57:10.842Z,114.73
2019-03-23T13:59:39.718Z,157.40
2019-03-23T14:02:08.608Z,159.27
2019-03-23T14:04:38.282Z,145.93
2019-03-23T14:07:07.149Z,142.20
2019-03-23T14:09:36.034Z,165.87
2019-03-23T14:12:04.923Z,202.20
2019-03-23T14:14:33.807Z,164.40
2019-03-23T14:17:02.687Z,195.63
2019-03-23T14:19:31.591Z,184.70
2019-03-23T14:22:00.398Z,244.90
2019-03-23T14:24:29.269Z,234.50
2019-03-23T14:26:58.174Z,246.87
2019-03-23T14:29:27.050Z,271.90
2019-03-23T14:31:56.002Z,284.73
2019-03-23T14:34:24.919Z,268.67
2019-03-23T14:36:53.817Z,240.20
2019-03-23T14:39:22.665Z,269.87
2019-03-23T14:41:51.562Z,315.53
2019-03-23T14:44:20.443Z,229.60
2019-03-23T14:46:49.314Z,229.53
2019-03-23T14:49:18.194Z,329.00
2019-03-23T14:51:47.070Z,393.43
2019-03-23T14:54:15.964Z,336.00
2019-03-23T14:56:44.767Z,265.37
2019-03-23T14:59:13.704Z,295.73
2019-03-23T15:01:42.618Z,238.83
2019-03-23T15:04:13.414Z,425.27
2019-03-23T15:06:43.920Z,414.67
2019-03-23T15:09:12.809Z,219.90
2019-03-23T15:11:41.690Z,209.33
2019-03-23T15:14:10.563Z,234.40
2019-03-23T15:16:39.482Z,276.97
2019-03-23T15:19:08.339Z,216.23
2019-03-23T15:21:39.134Z,203.60
2019-03-23T15:24:08.043Z,210.00
2019-03-23T15:26:36.935Z,183.67
2019-03-23T15:29:05.803Z,201.87
2019-03-23T15:31:34.711Z,178.20
2019-03-23T15:34:03.604Z,147.70
2019-03-23T15:36:32.487Z,153.80
2019-03-23T15:39:01.406Z,190.30
2019-03-23T15:41:30.269Z,152.17
2019-03-23T15:43:59.146Z,129.63
2019-03-23T15:46:28.055Z,124.10
2019-03-23T15:48:56.930Z,119.40
2019-03-23T15:51:25.807Z,137.90
2019-03-23T15:53:54.687Z,129.00
2019-03-23T15:56:23.562Z,128.83
2019-03-23T15:58:52.458Z,117.63
2019-03-23T16:01:23.225Z,126.93
2019-03-23T16:03:51.850Z,127.47
2019-03-23T16:06:20.784Z,138.10
2019-03-23T16:08:49.693Z,137.70
2019-03-23T16:11:18.571Z,115.70
2019-03-23T16:13:47.504Z,126.73
2019-03-23T16:16:26.940Z,147.40
2019-03-23T16:18:55.877Z,112.67
2019-03-23T16:21:24.817Z,101.30
2019-03-23T16:23:53.721Z,117.53
2019-03-23T16:26:22.654Z,99.70
2019-03-23T16:28:51.606Z,106.63
2019-03-23T16:31:20.528Z,104.57
2019-03-23T16:33:49.467Z,88.13
2019-03-23T16:36:18.370Z,72.97
2019-03-23T16:38:47.284Z,69.10
2019-03-23T16:41:16.261Z,65.00
2019-03-23T16:43:45.157Z,62.20
2019-03-23T16:46:14.066Z,65.80
2019-03-23T16:48:42.990Z,65.20
2019-03-23T16:51:11.892Z,51.90
2019-03-23T16:56:13.177Z,49.07
2019-03-23T16:58:42.087Z,51.33
2019-03-23T17:01:10.960Z,38.73
2019-03-23T17:03:39.893Z,49.67
2019-03-23T17:06:08.796Z,41.63
2019-03-23T17:08:37.690Z,46.07
2019-03-23T17:11:06.695Z,43.27
2019-03-23T17:13:35.569Z,46.80
2019-03-23T17:16:04.438Z,46.73
2019-03-23T17:18:34.914Z,40.50
2019-03-23T17:21:03.877Z,46.83
2019-03-23T17:23:32.753Z,44.23
2019-03-23T17:26:01.694Z,40.17
2019-03-23T17:28:30.611Z,39.47
2019-03-23T17:30:59.511Z,47.07
2019-03-23T17:33:28.442Z,46.67
2019-03-23T17:35:57.335Z,50.27
2019-03-23T17:38:26.235Z,41.83
2019-03-23T17:40:55.174Z,41.70
2019-03-23T17:43:24.545Z,34.73
2019-03-23T17:45:53.433Z,43.23
2019-03-23T17:48:22.372Z,51.27
2019-03-23T17:50:51.279Z,52.13
2019-03-23T17:53:20.167Z,54.97
2019-03-23T17:55:49.086Z,65.43
2019-03-23T17:58:17.991Z,65.33
2019-03-23T18:00:46.974Z,68.60
2019-03-23T18:03:15.924Z,69.80
2019-03-23T18:05:44.833Z,71.17
2019-03-23T18:08:13.734Z,74.07
2019-03-23T18:10:42.650Z,79.03
2019-03-23T18:13:16.568Z,84.10
2019-03-23T18:15:42.988Z,85.00
2019-03-23T18:18:11.902Z,80.97
2019-03-23T18:20:40.837Z,90.27
2019-03-23T18:23:09.725Z,96.37
2019-03-23T18:25:38.643Z,104.77
2019-03-23T18:28:07.548Z,85.40
2019-03-23T18:30:38.103Z,80.33
2019-03-23T18:33:07.038Z,88.43
2019-03-23T18:35:36.008Z,76.00
2019-03-23T18:38:05.012Z,90.03
2019-03-23T18:40:34.866Z,94.07
2019-03-23T18:43:03.860Z,97.40
2019-03-23T18:45:33.147Z,89.13
2019-03-23T18:48:02.076Z,93.50
2019-03-23T18:50:30.992Z,88.27
2019-03-23T18:52:59.887Z,97.17
2019-03-23T18:55:28.996Z,69.17
2019-03-23T18:57:58.789Z,85.33
2019-03-23T19:00:33.036Z,96.00
2019-03-23T19:03:02.601Z,82.13
2019-03-23T19:05:31.504Z,75.93
2019-03-23T19:08:00.402Z,94.60
2019-03-23T19:10:29.323Z,73.80
2019-03-23T19:12:58.255Z,72.53
2019-03-23T19:15:30.827Z,73.33
2019-03-23T19:17:59.831Z,84.67
2019-03-23T19:20:28.778Z,90.60
2019-03-23T19:22:57.728Z,80.63
2019-03-23T19:25:26.678Z,75.93
2019-03-23T19:27:55.543Z,83.63
2019-03-23T19:30:24.418Z,67.40
2019-03-23T19:32:53.350Z,86.87
2019-03-23T19:35:22.318Z,71.80
2019-03-23T19:37:51.220Z,81.60
2019-03-23T19:40:20.127Z,74.30
2019-03-23T19:42:50.984Z,75.03
2019-03-23T19:45:19.880Z,81.70
2019-03-23T19:47:48.916Z,71.07
2019-03-23T19:50:17.835Z,65.33
2019-03-23T19:52:46.737Z,73.07
2019-03-23T19:55:15.657Z,72.23
2019-03-23T19:57:44.551Z,76.20
2019-03-23T20:00:13.463Z,72.90
2019-03-23T20:02:42.515Z,69.73
2019-03-23T20:05:11.414Z,63.63
2019-03-23T20:07:40.286Z,73.43
2019-03-23T20:10:09.953Z,74.03
2019-03-23T20:12:38.867Z,63.53
2019-03-23T20:15:08.292Z,71.87
2019-03-23T20:17:40.910Z,72.03
2019-03-23T20:20:09.817Z,62.63
2019-03-23T20:22:38.710Z,69.90
2019-03-23T20:25:08.774Z,73.27
2019-03-23T20:27:37.675Z,56.33
2019-03-23T20:30:08.415Z,60.33
2019-03-23T20:32:37.437Z,62.13
2019-03-23T20:35:13.662Z,53.87
2019-03-23T20:37:42.603Z,49.93
2019-03-23T20:40:13.305Z,53.50
2019-03-23T20:42:43.755Z,49.00
2019-03-23T20:45:12.554Z,53.73
2019-03-23T20:47:41.479Z,44.07
2019-03-23T20:50:10.860Z,38.37
2019-03-23T20:52:41.835Z,45.87
2019-03-23T20:55:25.191Z,43.10
2019-03-23T20:57:54.543Z,48.37
2019-03-23T21:00:23.421Z,47.17
2019-03-23T21:02:52.328Z,41.03
2019-03-23T21:05:21.241Z,41.97
2019-03-23T21:07:50.130Z,40.63
2019-03-23T21:10:19.054Z,46.93
2019-03-23T21:12:47.946Z,39.43
2019-03-23T21:15:16.936Z,42.47
2019-03-23T21:17:51.435Z,37.83
2019-03-23T21:20:17.290Z,34.63
2019-03-23T21:22:46.177Z,34.27
2019-03-23T21:25:15.103Z,35.63
2019-03-23T21:27:43.987Z,49.53
2019-03-23T21:30:14.615Z,29.93
2019-03-23T21:32:43.539Z,31.23
2019-03-23T21:35:12.448Z,40.00
2019-03-23T21:37:41.339Z,28.63
2019-03-23T21:40:10.332Z,31.07
2019-03-23T21:42:40.130Z,32.13
2019-03-23T21:45:09.022Z,25.63
2019-03-23T21:47:37.936Z,27.60
2019-03-23T21:50:07.455Z,27.20
2019-03-23T21:52:36.361Z,27.23
2019-03-23T21:55:06.017Z,27.37
2019-03-23T21:57:35.103Z,28.83
2019-03-23T22:00:05.732Z,29.20
2019-03-23T22:02:34.703Z,28.90
2019-03-23T22:05:04.213Z,22.10
2019-03-23T22:07:33.136Z,23.20
2019-03-23T22:10:02.055Z,24.23
2019-03-23T22:12:30.949Z,27.87
2019-03-23T22:14:59.847Z,24.10
2019-03-23T22:17:28.774Z,16.47
2019-03-23T22:19:59.674Z,18.87
2019-03-23T22:22:28.560Z,21.97
2019-03-23T22:24:57.468Z,25.33
2019-03-23T22:27:26.366Z,20.90
2019-03-23T22:29:56.895Z,18.07
2019-03-23T22:32:25.803Z,20.50
2019-03-23T22:34:54.692Z,16.97
2019-03-23T22:37:23.594Z,17.40
2019-03-23T22:39:52.524Z,17.07
2019-03-23T22:42:21.407Z,17.73
2019-03-23T22:44:56.095Z,16.17
2019-03-23T22:47:24.999Z,19.70
2019-03-23T22:49:53.901Z,21.90
2019-03-23T22:52:22.785Z,15.17
2019-03-23T22:54:51.728Z,17.33
2019-03-23T22:57:20.642Z,17.03
2019-03-23T22:59:49.542Z,16.47
2019-03-23T23:02:18.476Z,10.30
2019-03-23T23:04:47.379Z,14.10
2019-03-23T23:07:16.345Z,11.30
2019-03-23T23:09:45.249Z,15.90
2019-03-23T23:12:14.146Z,11.67
2019-03-23T23:14:43.510Z,12.60
2019-03-23T23:17:12.509Z,16.43
2019-03-23T23:19:41.405Z,15.10
2019-03-23T23:22:10.451Z,13.50
2019-03-23T23:24:39.374Z,16.27
2019-03-23T23:27:08.277Z,10.80
2019-03-23T23:29:37.169Z,9.53
2019-03-23T23:32:06.122Z,15.80
2019-03-23T23:34:35.079Z,7.77
2019-03-23T23:37:03.979Z,9.43
2019-03-23T23:39:32.886Z,11.47
2019-03-23T23:42:01.769Z,7.17
2019-03-23T23:44:37.514Z,11.17
2019-03-23T23:47:06.411Z,8.03
2019-03-23T23:49:35.304Z,9.80
2019-03-23T23:52:04.253Z,14.23
2019-03-23T23:54:33.160Z,12.27
2019-03-23T23:57:02.176Z,7.70
2019-03-23T23:59:31.074Z,6.43
